Dayton, OH

8:11 AM EST on March 05, 2015 (GMT -0500)
Wright-Patterson Air Force Base | Change Station
CLOSE
Current Station
Airport
Location: Wright-Patt AFB,
Elevation: 823 ft
Nearby Weather Stations

Elev 823 ft 39.83 °N, 84.05 °W | Updated 13 minutes ago

Overcast
Overcast
17 °F
Feels Like 6 °F
N
9
Wind Variable Wind from North

Today
High -- | Low -- °F
--% Chance of Precip.
Yesterday
High -- | Low -- °F
Precip. -- in
7:04 AM 6:32 PM
Full, 100% visible
Pressure 30.35 in
Visibility 10.0 miles
Clouds Overcast 9000 ft
Windchill 6 °F
Dew Point 2 °F
Humidity 53%
Rainfall 0.00 in
Snow Depth Not available.
UV 0 out of 12
Pollen .60 out of 12
Air Quality Not available.
Flu Activity Not available.
METAR KFFO 051258Z 35008KT 290V010 10SM OVC090 M08/M16 A3030 RMK AO2A SLP276 T10841164

More Conditions Fewer Conditions

Pressure 30.35 in
Visibility 10.0 miles
Clouds Overcast 9000 ft
Windchill 6 °F
Dew Point 2 °F
Humidity 53%
Rainfall 0.00 in
Snow Depth Not available.
UV 0 out of 12
Pollen .60 out of 12
Air Quality Not available.
Flu Activity Not available.
METAR KFFO 051258Z 35008KT 290V010 10SM OVC090 M08/M16 A3030 RMK AO2A SLP276 T10841164

More Conditions Fewer Conditions

10-Day Weather Forecast

Almanac

Astronomy

Mar. 05, 2015 Rise Set
Actual Time
Civil Twilight
Nautical Twilight
Astronomical Twilight
Moon
Length of Visible Light
Length of Day
Tomorrow will be .
, % of the Moon is Illuminated

Today's Extremes

State Highs State Lows

Community

WunderPhotos

Upload Photos

1,802,749 photos uploaded!

WunderBlogs® & News

Nearby

Air Quality

  Air Quality AQ Index Pollutant
Not available.

Snow Depth

Station Depth Elevation

Earthquake Activity

City Distance Mag. Time & Date
Minimum magnitude displayed is 2.5.

Coastal Water Temperatures

Place Temperature

Nearby Weather Stations